Time;durP1;ratioP1;P1;durP2;ratioP2;P2;SDS_P1;SDS_P2;PMS_P1;PMS_P2;Temp;Humidity;BMP_temperature;BMP_pressure;BME280_temperature;BME280_humidity;BME280_pressure;Samples;Min_cycle;Max_cycle;Signal;HPM_P1;HPM_P2
2022/01/26 00:07:03;;;;;;;71.03;33.53;;;3.50;99.90;;;;;;5116600;28;20344;-65
2022/01/26 00:09:30;;;;;;;65.10;31.77;;;3.40;99.90;;;;;;5116502;28;20035;-67
2022/01/26 00:11:56;;;;;;;66.40;30.90;;;3.50;99.90;;;;;;5131792;28;20050;-66
2022/01/26 00:14:22;;;;;;;65.72;30.48;;;3.50;99.90;;;;;;5105028;28;20468;-65
2022/01/26 00:16:47;;;;;;;68.93;32.25;;;3.40;99.90;;;;;;5115865;28;20056;-66
2022/01/26 00:19:20;;;;;;;68.93;30.50;;;3.40;99.90;;;;;;5134581;27;20122;-66
2022/01/26 00:21:54;;;;;;;67.13;31.58;;;3.50;99.90;;;;;;5137660;27;20047;-66
2022/01/26 00:29:17;;;;;;;67.28;31.05;;;3.20;99.90;;;;;;5118415;28;20059;-67
2022/01/26 00:33:06;;;;;;;67.00;30.42;;;3.20;99.90;;;;;;5118178;27;20352;-66
2022/01/26 00:40:42;;;;;;;69.75;31.92;;;3.20;99.90;;;;;;5131394;27;20523;-67
2022/01/26 00:43:21;;;;;;;75.90;34.28;;;3.20;99.90;;;;;;5107410;28;20122;-66
2022/01/26 00:45:49;;;;;;;69.72;31.00;;;3.20;99.90;;;;;;5117319;28;20043;-66
2022/01/26 00:48:20;;;;;;;74.38;32.38;;;3.20;99.90;;;;;;5117876;28;20063;-67
2022/01/26 00:50:50;;;;;;;70.80;32.75;;;3.10;99.90;;;;;;5099824;28;20047;-65
2022/01/26 00:53:16;;;;;;;72.95;33.25;;;3.20;99.90;;;;;;5131014;27;20091;-65
2022/01/26 00:55:42;;;;;;;71.20;33.88;;;3.20;99.90;;;;;;5119626;27;20043;-66
2022/01/26 00:58:08;;;;;;;72.05;31.95;;;3.20;99.90;;;;;;5137793;27;20047;-66
2022/01/26 01:00:33;;;;;;;74.07;31.05;;;3.20;99.90;;;;;;5137367;27;20047;-66
2022/01/26 01:03:01;;;;;;;71.93;32.53;;;3.30;99.90;;;;;;5118529;27;20039;-66
2022/01/26 01:05:33;;;;;;;78.82;33.42;;;3.20;99.90;;;;;;5137291;27;20045;-66
2022/01/26 01:08:07;;;;;;;69.28;31.98;;;3.30;99.90;;;;;;5119305;27;20168;-67
2022/01/26 01:10:33;;;;;;;68.18;32.33;;;3.30;99.90;;;;;;5137234;27;20410;-66
2022/01/26 01:13:00;;;;;;;75.60;34.05;;;3.30;99.90;;;;;;5108267;28;20047;-67
2022/01/26 01:15:27;;;;;;;73.28;32.78;;;3.30;99.90;;;;;;5099164;28;20051;-66
2022/01/26 01:18:05;;;;;;;73.65;33.85;;;3.30;99.90;;;;;;5116582;28;20059;-65
2022/01/26 01:23:36;;;;;;;75.07;33.67;;;3.30;99.90;;;;;;5129477;27;20047;-65
2022/01/26 01:26:07;;;;;;;71.40;32.47;;;3.30;99.90;;;;;;5136781;27;20242;-66
2022/01/26 01:31:11;;;;;;;75.05;33.58;;;3.20;99.90;;;;;;5136930;27;20043;-66
2022/01/26 01:33:43;;;;;;;81.85;35.40;;;3.20;99.90;;;;;;5102951;28;20112;-66
2022/01/26 01:36:10;;;;;;;77.30;34.45;;;3.10;99.90;;;;;;5116493;28;20043;-66
2022/01/26 01:38:40;;;;;;;75.65;35.78;;;3.10;99.90;;;;;;5116207;28;20044;-66
2022/01/26 01:41:05;;;;;;;76.93;35.95;;;3.10;99.90;;;;;;5098528;28;20062;-67
2022/01/26 01:43:31;;;;;;;77.32;34.92;;;3.10;99.90;;;;;;5131774;27;20042;-67
2022/01/26 01:45:57;;;;;;;80.65;35.53;;;3.10;99.90;;;;;;5118298;27;20108;-66
2022/01/26 01:48:29;;;;;;;76.10;34.20;;;3.10;99.90;;;;;;5137046;27;20106;-65
2022/01/26 01:50:57;;;;;;;78.80;34.55;;;3.10;99.90;;;;;;5137124;27;20035;-66
2022/01/26 01:53:39;;;;;;;76.88;35.95;;;3.10;99.90;;;;;;5104203;28;20048;-65
2022/01/26 01:56:07;;;;;;;77.28;33.72;;;3.20;99.90;;;;;;5115749;28;20069;-65
2022/01/26 01:58:33;;;;;;;78.53;35.35;;;3.20;99.90;;;;;;5116055;28;20118;-66
2022/01/26 02:00:59;;;;;;;78.80;36.15;;;3.20;99.90;;;;;;5116134;28;20024;-68
2022/01/26 02:03:25;;;;;;;77.82;34.25;;;3.10;99.90;;;;;;5130341;27;20431;-66
2022/01/26 02:05:51;;;;;;;78.50;34.25;;;3.10;99.90;;;;;;5117526;27;20054;-67
2022/01/26 02:08:18;;;;;;;79.57;34.83;;;3.00;99.90;;;;;;5137097;27;20042;-66
2022/01/26 02:10:45;;;;;;;80.82;33.95;;;3.00;99.90;;;;;;5118356;27;20374;-66
2022/01/26 02:13:19;;;;;;;82.43;33.63;;;3.00;99.90;;;;;;5117304;27;20166;-67
2022/01/26 02:15:54;;;;;;;;;;;3.00;99.90;;;;;;5136824;27;20043;-66
2022/01/26 02:53:57;;;;;;;74.18;31.45;;;3.00;99.90;;;;;;5121432;27;19976;-67
2022/01/26 02:56:41;;;;;;;70.60;30.83;;;3.10;99.90;;;;;;5095529;28;20051;-67
2022/01/26 03:01:49;;;;;;;;;;;3.00;99.90;;;;;;5115430;28;20479;-66
2022/01/26 03:07:21;;;;;;;81.03;32.92;;;3.00;99.90;;;;;;5135691;27;20035;-67
2022/01/26 03:09:49;;;;;;;77.45;34.60;;;3.00;99.90;;;;;;5134695;27;20148;-66
2022/01/26 03:12:26;;;;;;;77.82;32.50;;;2.90;99.90;;;;;;5131567;27;20062;-68
2022/01/26 03:14:57;;;;;;;72.50;29.85;;;2.90;99.90;;;;;;5096636;28;20062;-67
2022/01/26 03:19:52;;;;;;;75.63;31.75;;;2.80;99.90;;;;;;5114539;28;20051;-66
2022/01/26 03:33:12;;;;;;;67.07;28.88;;;2.70;99.90;;;;;;5124188;27;20370;-66
2022/01/26 03:35:48;;;;;;;71.22;29.40;;;2.70;99.90;;;;;;5114105;28;20048;-66
2022/01/26 03:38:59;;;;;;;69.32;30.10;;;2.70;99.90;;;;;;5114303;28;20039;-67
2022/01/26 03:41:20;;;;;;;72.57;30.75;;;2.80;99.90;;;;;;5104718;28;20044;-67
2022/01/26 03:43:46;;;;;;;71.07;29.33;;;2.70;99.90;;;;;;5130800;27;20117;-66
2022/01/26 03:46:12;;;;;;;63.80;27.65;;;2.70;99.90;;;;;;5134407;27;20117;-67
2022/01/26 03:48:37;;;;;;;67.88;29.27;;;2.70;99.90;;;;;;5134959;27;20035;-68
2022/01/26 03:51:03;;;;;;;63.67;28.90;;;2.80;99.90;;;;;;5134525;27;20046;-65
2022/01/26 03:53:29;;;;;;;71.00;28.42;;;2.70;99.90;;;;;;5120725;27;20069;-65
2022/01/26 03:55:54;;;;;;;67.40;27.67;;;2.70;99.90;;;;;;5113648;28;20036;-66
2022/01/26 03:58:20;;;;;;;66.82;27.42;;;2.70;99.90;;;;;;5114207;28;20364;-66
2022/01/26 04:00:45;;;;;;;64.75;27.90;;;2.70;99.90;;;;;;5113901;28;20130;-66
2022/01/26 04:03:11;;;;;;;65.45;28.75;;;2.70;99.90;;;;;;5124810;28;20103;-67
2022/01/26 04:05:37;;;;;;;66.43;29.25;;;2.70;99.90;;;;;;5133602;28;20035;-67
2022/01/26 04:08:09;;;;;;;66.63;26.88;;;2.70;99.90;;;;;;5134357;28;20039;-66
2022/01/26 04:13:00;;;;;;;70.30;28.52;;;2.70;99.90;;;;;;5124001;28;20159;-66
2022/01/26 04:15:30;;;;;;;61.00;25.67;;;2.70;99.90;;;;;;5105253;28;20036;-67
2022/01/26 04:17:57;;;;;;;61.22;26.10;;;2.80;99.90;;;;;;5113497;28;20064;-64
2022/01/26 04:20:26;;;;;;;61.58;25.70;;;2.70;99.90;;;;;;5113540;28;20054;-67
2022/01/26 04:23:06;;;;;;;63.35;26.52;;;2.80;99.90;;;;;;5122338;28;20180;-67
2022/01/26 04:25:32;;;;;;;64.45;26.50;;;2.80;99.90;;;;;;5134322;28;20043;-67
2022/01/26 04:28:03;;;;;;;69.30;25.73;;;2.70;99.90;;;;;;5134674;28;20041;-66
2022/01/26 04:30:28;;;;;;;66.18;27.15;;;2.70;99.90;;;;;;5134427;28;20372;-65
2022/01/26 04:32:59;;;;;;;61.63;26.58;;;2.70;99.90;;;;;;5099267;28;20452;-67
2022/01/26 04:35:25;;;;;;;59.17;26.60;;;2.70;99.90;;;;;;5115606;28;20042;-66
2022/01/26 04:38:55;;;;;;;65.20;27.42;;;2.70;99.90;;;;;;5134489;28;20035;-67
2022/01/26 04:43:37;;;;;;;59.60;25.83;;;2.70;99.90;;;;;;5133620;28;20477;-67
2022/01/26 04:46:03;;;;;;;60.17;25.75;;;2.70;99.90;;;;;;5133673;28;20039;-67
2022/01/26 04:48:28;;;;;;;63.15;25.92;;;2.60;99.90;;;;;;5134267;28;20053;-66
2022/01/26 04:50:54;;;;;;;58.63;26.13;;;2.70;99.90;;;;;;5115915;28;20065;-66
2022/01/26 04:53:20;;;;;;;62.55;26.00;;;2.60;99.90;;;;;;5115263;28;20046;-66
2022/01/26 04:55:46;;;;;;;61.50;26.23;;;2.60;99.90;;;;;;5133746;28;20112;-66
2022/01/26 04:58:12;;;;;;;59.92;26.90;;;2.70;99.90;;;;;;5133947;28;20067;-67
2022/01/26 05:00:38;;;;;;;64.30;25.05;;;2.60;99.90;;;;;;5115622;28;20049;-66
2022/01/26 05:03:04;;;;;;;64.72;28.02;;;2.60;99.90;;;;;;5133465;28;20035;-66
2022/01/26 05:05:30;;;;;;;59.90;25.25;;;2.60;99.90;;;;;;5134200;27;20031;-66
2022/01/26 05:07:55;;;;;;;58.95;25.30;;;2.60;99.90;;;;;;5117201;28;20477;-66
2022/01/26 05:10:21;;;;;;;54.15;24.33;;;2.60;99.90;;;;;;5117087;28;20057;-67
2022/01/26 05:12:47;;;;;;;57.83;24.23;;;2.60;99.90;;;;;;5124760;27;20114;-67
2022/01/26 05:15:13;;;;;;;56.08;24.80;;;2.60;99.90;;;;;;5136985;27;20157;-66
2022/01/26 05:17:40;;;;;;;54.80;23.83;;;2.60;99.90;;;;;;5137319;27;20051;-66
2022/01/26 05:20:08;;;;;;;52.85;22.90;;;2.60;99.90;;;;;;5137593;27;20050;-66
2022/01/26 05:22:34;;;;;;;55.85;24.27;;;2.60;99.90;;;;;;5136539;27;20039;-69
2022/01/26 05:25:00;;;;;;;57.92;23.38;;;2.60;99.90;;;;;;5136921;27;20035;-68
2022/01/26 05:27:26;;;;;;;51.85;23.50;;;2.70;99.90;;;;;;5119245;27;20043;-67
2022/01/26 05:29:52;;;;;;;47.97;24.17;;;2.70;99.90;;;;;;5137379;27;20039;-67
2022/01/26 05:32:19;;;;;;;53.55;22.25;;;2.70;99.90;;;;;;5136702;27;20451;-67
2022/01/26 05:34:45;;;;;;;51.28;21.35;;;2.70;99.90;;;;;;5136982;27;20035;-68
2022/01/26 05:37:10;;;;;;;49.28;21.20;;;2.70;99.90;;;;;;5136827;27;20054;-66
2022/01/26 05:39:38;;;;;;;49.25;21.17;;;2.70;99.90;;;;;;5118712;27;20057;-67
2022/01/26 05:42:05;;;;;;;50.03;20.52;;;2.80;99.90;;;;;;5117792;27;20061;-66
2022/01/26 05:44:30;;;;;;;53.20;21.60;;;2.80;99.90;;;;;;5136188;27;20031;-66
2022/01/26 05:46:56;;;;;;;53.28;21.90;;;2.80;99.90;;;;;;5118484;27;20039;-67
2022/01/26 05:49:22;;;;;;;49.40;21.42;;;2.80;99.90;;;;;;5136820;27;20039;-67
2022/01/26 05:51:50;;;;;;;54.47;23.55;;;2.80;99.90;;;;;;5128584;27;20047;-67
2022/01/26 05:54:16;;;;;;;49.45;21.77;;;2.70;99.90;;;;;;5117628;27;20058;-68
2022/01/26 05:56:44;;;;;;;56.35;21.48;;;2.70;99.90;;;;;;5114624;28;20460;-67
2022/01/26 05:59:10;;;;;;;55.72;23.05;;;2.70;99.90;;;;;;5097510;28;20159;-67
2022/01/26 06:01:36;;;;;;;53.15;21.42;;;2.80;99.90;;;;;;5118948;27;20102;-66
2022/01/26 06:04:02;;;;;;;51.10;21.35;;;2.80;99.90;;;;;;5115834;27;20313;-67
2022/01/26 06:06:31;;;;;;;51.83;22.02;;;2.70;99.90;;;;;;5118120;27;20034;-68
2022/01/26 06:08:58;;;;;;;50.20;21.25;;;2.70;99.90;;;;;;5136356;27;20031;-66
2022/01/26 06:11:23;;;;;;;49.53;22.00;;;2.70;99.90;;;;;;5136150;27;20049;-65
2022/01/26 06:13:49;;;;;;;50.30;21.83;;;2.70;99.90;;;;;;5135865;27;20106;-68
2022/01/26 06:16:16;;;;;;;48.10;22.00;;;2.80;99.90;;;;;;5134966;27;20030;-66
2022/01/26 06:18:43;;;;;;;54.22;23.27;;;2.80;99.90;;;;;;5135204;27;20464;-68
2022/01/26 06:21:10;;;;;;;53.45;22.92;;;2.80;99.90;;;;;;5135657;27;20069;-67
2022/01/26 06:23:35;;;;;;;53.53;21.95;;;2.90;99.90;;;;;;5135418;27;20047;-66
2022/01/26 06:26:01;;;;;;;48.22;21.83;;;2.90;99.90;;;;;;5135845;27;20031;-69
2022/01/26 06:28:28;;;;;;;48.80;22.83;;;2.90;99.90;;;;;;5097762;28;20039;-66
2022/01/26 06:30:59;;;;;;;51.90;24.02;;;2.80;99.90;;;;;;5121766;27;20103;-66
2022/01/26 06:33:25;;;;;;;53.50;23.50;;;2.90;99.90;;;;;;5105468;28;20035;-66
2022/01/26 06:35:51;;;;;;;51.67;24.42;;;2.90;99.90;;;;;;5131245;27;20039;-66
2022/01/26 06:38:17;;;;;;;56.08;26.52;;;2.90;99.90;;;;;;5102919;28;20130;-66
2022/01/26 06:40:43;;;;;;;57.28;24.48;;;2.90;99.90;;;;;;5114235;28;20039;-67
2022/01/26 06:43:14;;;;;;;52.67;24.58;;;3.00;99.90;;;;;;5105187;27;20054;-66
2022/01/26 06:45:55;;;;;;;54.42;24.80;;;3.00;99.90;;;;;;5117068;27;20058;-68
2022/01/26 06:50:55;;;;;;;56.58;26.73;;;3.00;99.90;;;;;;5136023;27;20074;-69
2022/01/26 06:53:22;;;;;;;59.28;27.73;;;3.00;99.90;;;;;;5124333;27;20118;-68
2022/01/26 06:55:48;;;;;;;55.70;27.35;;;3.00;99.90;;;;;;5135147;27;20038;-70
2022/01/26 06:58:14;;;;;;;62.40;30.63;;;3.00;99.90;;;;;;5135720;27;20043;-69
2022/01/26 07:00:39;;;;;;;59.20;29.60;;;3.00;99.90;;;;;;5117294;27;20031;-68
2022/01/26 07:03:05;;;;;;;62.03;30.25;;;3.00;99.90;;;;;;5134658;27;20119;-67
2022/01/26 07:05:31;;;;;;;62.00;31.20;;;3.00;99.90;;;;;;5135010;27;20035;-68
2022/01/26 07:07:56;;;;;;;70.40;31.23;;;3.00;99.90;;;;;;5135625;27;20031;-68
2022/01/26 07:10:22;;;;;;;71.30;34.25;;;3.00;99.90;;;;;;5134743;27;20035;-66
2022/01/26 07:12:48;;;;;;;71.55;33.92;;;3.00;99.90;;;;;;5125534;27;20039;-66
2022/01/26 07:23:22;;;;;;;80.80;38.05;;;3.10;99.90;;;;;;5107301;27;20130;-66
2022/01/26 07:25:48;;;;;;;86.03;39.88;;;3.10;99.90;;;;;;5135376;27;20049;-66
2022/01/26 07:28:14;;;;;;;79.82;37.78;;;3.10;99.90;;;;;;5134040;27;20039;-66
2022/01/26 07:30:39;;;;;;;89.85;40.30;;;3.20;99.90;;;;;;5096484;27;20054;-66
2022/01/26 07:33:06;;;;;;;81.75;38.97;;;3.20;99.90;;;;;;5132377;27;20053;-65
2022/01/26 07:35:33;;;;;;;89.70;42.42;;;3.20;99.90;;;;;;5134848;27;20126;-65
2022/01/26 07:38:01;;;;;;;96.35;43.63;;;3.20;99.90;;;;;;5135098;27;20034;-65
2022/01/26 07:40:27;;;;;;;95.60;44.38;;;3.20;99.90;;;;;;5134263;27;20049;-65
2022/01/26 07:42:53;;;;;;;93.45;43.58;;;3.30;99.90;;;;;;5127623;27;20157;-65
2022/01/26 07:45:20;;;;;;;100.43;44.88;;;3.30;99.90;;;;;;5113911;28;20449;-65
2022/01/26 07:47:46;;;;;;;98.85;46.78;;;3.30;99.90;;;;;;5100809;27;20031;-66
2022/01/26 07:50:14;;;;;;;95.28;44.72;;;3.30;99.90;;;;;;5134260;27;20039;-65
2022/01/26 07:52:42;;;;;;;103.13;46.08;;;3.30;99.90;;;;;;5129259;27;20035;-65
2022/01/26 07:55:10;;;;;;;106.72;47.10;;;3.40;99.90;;;;;;5098631;28;20039;-66
2022/01/26 07:57:38;;;;;;;99.00;46.45;;;3.40;99.90;;;;;;5113986;28;20047;-66
2022/01/26 08:00:06;;;;;;;110.05;49.40;;;3.30;99.90;;;;;;5130940;27;20047;-66
2022/01/26 08:02:32;;;;;;;111.40;48.00;;;3.30;99.90;;;;;;5133363;27;20409;-66
2022/01/26 08:04:58;;;;;;;110.97;49.42;;;3.30;99.90;;;;;;5129038;28;20032;-66
2022/01/26 08:07:23;;;;;;;108.30;48.30;;;3.40;99.90;;;;;;5113825;28;20075;-68
2022/01/26 08:09:49;;;;;;;104.53;48.08;;;3.40;99.90;;;;;;5114250;28;20043;-66
2022/01/26 08:12:16;;;;;;;111.18;48.78;;;3.40;99.90;;;;;;5114777;28;20100;-67
2022/01/26 08:14:43;;;;;;;107.97;48.47;;;3.40;99.90;;;;;;5134360;28;20043;-67
2022/01/26 08:17:09;;;;;;;113.50;52.10;;;3.40;99.90;;;;;;5134033;28;20087;-66
2022/01/26 08:19:35;;;;;;;115.32;50.30;;;3.40;99.90;;;;;;5134565;28;20097;-66
2022/01/26 08:22:03;;;;;;;119.95;50.75;;;3.50;99.90;;;;;;5113474;28;20126;-67
2022/01/26 08:24:29;;;;;;;112.90;50.05;;;3.60;99.90;;;;;;5115251;28;20298;-66
2022/01/26 08:27:00;;;;;;;118.57;53.17;;;3.70;99.90;;;;;;5131254;28;20035;-67
2022/01/26 08:29:33;;;;;;;114.32;51.05;;;3.60;99.90;;;;;;5116510;28;20114;-65
2022/01/26 08:31:59;;;;;;;119.25;52.45;;;3.60;99.90;;;;;;5133776;28;20062;-66
2022/01/26 08:34:25;;;;;;;119.40;52.30;;;3.60;99.90;;;;;;5113963;28;20040;-66
2022/01/26 08:36:51;;;;;;;118.90;53.08;;;3.70;99.90;;;;;;5078821;28;20051;-65
2022/01/26 08:39:17;;;;;;;113.80;51.95;;;3.60;99.90;;;;;;5122406;28;20050;-66
2022/01/26 08:41:43;;;;;;;119.13;51.85;;;3.50;99.90;;;;;;5135163;27;20035;-66
2022/01/26 08:44:09;;;;;;;118.60;52.38;;;3.60;99.90;;;;;;5118895;27;20039;-66
2022/01/26 08:46:35;;;;;;;120.43;52.53;;;3.50;99.90;;;;;;5116784;28;20036;-65
2022/01/26 08:49:02;;;;;;;114.40;49.83;;;3.50;99.90;;;;;;5099144;28;20374;-66
2022/01/26 08:51:28;;;;;;;122.70;50.83;;;3.60;99.90;;;;;;5108648;28;20036;-66
2022/01/26 08:53:53;;;;;;;114.15;49.58;;;3.70;99.90;;;;;;5113857;27;20035;-66
2022/01/26 08:56:19;;;;;;;119.10;48.72;;;3.60;99.90;;;;;;5137832;27;20100;-66
2022/01/26 08:58:45;;;;;;;121.68;50.42;;;3.60;99.90;;;;;;5137622;27;20041;-66
2022/01/26 09:01:11;;;;;;;114.00;48.10;;;3.70;99.90;;;;;;5119142;27;20121;-66
2022/01/26 09:03:39;;;;;;;122.95;54.05;;;3.70;99.90;;;;;;5128265;27;20111;-65
2022/01/26 09:06:08;;;;;;;131.27;55.05;;;3.90;99.90;;;;;;5117095;28;20079;-67
2022/01/26 09:08:35;;;;;;;124.85;54.30;;;3.80;99.90;;;;;;5116874;28;20452;-65
2022/01/26 09:11:02;;;;;;;119.65;52.97;;;3.70;99.90;;;;;;5116545;28;20077;-65
2022/01/26 09:13:33;;;;;;;116.85;49.75;;;3.80;99.90;;;;;;5127868;27;20126;-66
2022/01/26 09:16:02;;;;;;;129.68;53.50;;;3.80;99.90;;;;;;5118913;27;20391;-65
2022/01/26 09:19:20;;;;;;;138.77;57.78;;;3.80;99.90;;;;;;5137438;27;20055;-66
2022/01/26 09:21:17;;;;;;;134.45;54.58;;;3.70;99.90;;;;;;5128726;27;20378;-66
2022/01/26 09:23:42;;;;;;;136.02;54.70;;;3.80;99.90;;;;;;5136794;27;20039;-67
2022/01/26 09:26:08;;;;;;;144.98;58.17;;;3.80;99.90;;;;;;5137570;27;20035;-65
2022/01/26 09:28:34;;;;;;;139.65;56.00;;;3.80;99.90;;;;;;5137297;27;20345;-66
2022/01/26 09:30:59;;;;;;;129.23;54.53;;;3.80;99.90;;;;;;5118867;27;20071;-66
2022/01/26 09:33:25;;;;;;;134.85;51.88;;;3.80;99.90;;;;;;5126399;27;20032;-65
2022/01/26 09:35:51;;;;;;;144.00;53.00;;;3.80;99.90;;;;;;5116631;28;20116;-66
2022/01/26 09:38:17;;;;;;;133.70;50.92;;;3.80;99.90;;;;;;5116793;28;20040;-66
2022/01/26 09:40:43;;;;;;;129.45;48.17;;;3.80;99.90;;;;;;5117714;27;20500;-66
2022/01/26 09:43:11;;;;;;;111.32;45.55;;;3.80;99.90;;;;;;5110810;28;20551;-65
2022/01/26 09:45:36;;;;;;;102.65;42.97;;;3.90;99.90;;;;;;5116498;28;20035;-65
2022/01/26 09:48:03;;;;;;;98.55;41.75;;;4.00;99.90;;;;;;5098461;28;20040;-67
2022/01/26 09:50:30;;;;;;;95.28;42.65;;;3.90;99.90;;;;;;5098095;28;20130;-66
2022/01/26 09:52:56;;;;;;;104.43;44.17;;;3.90;99.90;;;;;;5116525;27;20032;-66
2022/01/26 09:55:23;;;;;;;103.20;43.85;;;3.90;99.90;;;;;;5135680;27;20053;-67
2022/01/26 09:57:49;;;;;;;94.20;42.58;;;3.90;99.90;;;;;;5136688;27;20035;-66
2022/01/26 10:00:15;;;;;;;88.30;42.65;;;4.00;99.90;;;;;;5117939;27;20057;-68
2022/01/26 10:02:44;;;;;;;87.07;40.20;;;4.10;99.90;;;;;;5135378;27;20035;-64
2022/01/26 10:05:17;;;;;;;74.38;36.35;;;4.00;99.90;;;;;;5136649;27;20031;-65
2022/01/26 10:08:06;;;;;;;78.60;37.55;;;4.00;99.90;;;;;;5136630;27;20039;-66
2022/01/26 10:15:27;;;;;;;77.20;35.42;;;4.00;99.90;;;;;;5136094;27;20073;-66
2022/01/26 10:19:09;;;;;;;80.95;35.17;;;4.10;99.90;;;;;;5052702;28;20425;-65
2022/01/26 10:21:47;;;;;;;77.25;36.33;;;4.20;99.90;;;;;;5052890;28;20107;-65
2022/01/26 10:24:13;;;;;;;73.63;36.28;;;4.20;99.90;;;;;;5097714;27;20071;-65
2022/01/26 10:26:39;;;;;;;80.22;36.95;;;4.20;99.90;;;;;;5135860;27;20740;-67
2022/01/26 10:29:05;;;;;;;77.03;36.78;;;4.20;99.90;;;;;;5135823;27;20075;-65
2022/01/26 10:31:39;;;;;;;77.53;35.85;;;4.20;99.90;;;;;;5135864;27;20386;-66
2022/01/26 10:34:22;;;;;;;73.85;36.00;;;4.20;99.90;;;;;;5116927;27;20047;-66
2022/01/26 10:36:50;;;;;;;73.63;35.90;;;4.20;99.90;;;;;;5136439;27;20045;-67
2022/01/26 10:39:28;;;;;;;81.93;36.88;;;4.20;99.90;;;;;;5128795;27;20075;-66
2022/01/26 10:41:58;;;;;;;71.90;34.40;;;4.20;99.90;;;;;;5115185;28;20080;-66
2022/01/26 10:44:28;;;;;;;74.03;35.40;;;4.20;99.90;;;;;;5133552;27;20046;-66
2022/01/26 10:46:56;;;;;;;67.60;35.00;;;4.20;99.90;;;;;;5135787;27;20071;-66
2022/01/26 10:49:43;;;;;;;81.00;36.47;;;4.20;99.90;;;;;;5135840;27;20042;-68
2022/01/26 10:54:50;;;;;;;69.82;32.75;;;4.30;99.90;;;;;;5097051;28;20047;-68
2022/01/26 10:57:18;;;;;;;65.22;32.85;;;4.30;99.90;;;;;;5102803;27;20076;-64
2022/01/26 10:59:49;;;;;;;66.70;33.13;;;4.30;99.90;;;;;;5116934;27;20043;-64
2022/01/26 11:02:24;;;;;;;69.32;34.33;;;4.30;99.90;;;;;;5135223;27;20061;-65
2022/01/26 11:04:50;;;;;;;69.50;33.70;;;4.30;99.90;;;;;;5119091;27;20371;-66
2022/01/26 11:07:16;;;;;;;87.47;34.53;;;4.20;99.90;;;;;;5125321;27;20355;-61
2022/01/26 11:09:47;;;;;;;65.55;30.90;;;4.30;99.90;;;;;;5101686;28;20365;-65
2022/01/26 11:12:16;;;;;;;67.22;31.38;;;4.40;99.90;;;;;;5096451;28;20027;-66
2022/01/26 11:14:51;;;;;;;71.57;34.10;;;4.40;99.90;;;;;;5114764;28;20047;-66
2022/01/26 11:17:34;;;;;;;66.68;33.35;;;4.40;99.90;;;;;;5114012;28;20051;-66
2022/01/26 11:20:03;;;;;;;61.85;32.45;;;4.40;99.90;;;;;;5095472;28;20104;-65
2022/01/26 11:22:32;;;;;;;65.05;33.72;;;4.40;99.90;;;;;;5114078;27;20356;-65
2022/01/26 11:25:11;;;;;;;64.10;32.33;;;4.40;99.90;;;;;;5078735;28;20031;-66
2022/01/26 11:27:39;;;;;;;70.85;33.00;;;4.40;99.90;;;;;;5114076;28;20053;-65
2022/01/26 11:30:26;;;;;;;66.93;32.10;;;4.40;99.90;;;;;;5095402;28;20043;-65
2022/01/26 11:33:01;;;;;;;62.70;31.02;;;4.50;99.90;;;;;;5113871;28;20109;-66
2022/01/26 11:35:30;;;;;;;64.95;32.05;;;4.50;99.90;;;;;;5114527;28;20036;-65
2022/01/26 11:39:04;;;;;;;66.47;32.50;;;4.60;99.90;;;;;;5096211;28;20093;-66
2022/01/26 11:46:30;;;;;;;59.72;32.03;;;4.60;99.90;;;;;;5116220;27;20511;-66
2022/01/26 11:49:08;;;;;;;64.97;31.77;;;4.50;99.90;;;;;;5134829;27;20039;-65
2022/01/26 11:51:51;;;;;;;64.03;32.35;;;4.60;99.90;;;;;;5133984;27;20038;-66
2022/01/26 11:54:25;;;;;;;62.05;31.88;;;4.60;99.90;;;;;;5134060;27;20122;-66
2022/01/26 11:56:57;;;;;;;70.57;31.80;;;4.60;99.90;;;;;;5134492;27;20492;-67
2022/01/26 11:59:24;;;;;;;61.63;31.77;;;4.60;99.90;;;;;;5134260;27;20289;-68
2022/01/26 12:01:58;;;;;;;68.15;31.40;;;4.50;99.90;;;;;;5134146;27;20118;-66
2022/01/26 12:04:25;;;;;;;60.63;33.40;;;4.60;99.90;;;;;;5098646;28;20359;-66
2022/01/26 12:06:58;;;;;;;66.55;31.10;;;4.60;99.90;;;;;;5134601;28;20043;-65
2022/01/26 12:09:24;;;;;;;60.72;31.48;;;4.60;99.90;;;;;;5116361;28;20417;-66
2022/01/26 12:11:55;;;;;;;68.63;30.95;;;4.60;99.90;;;;;;5116232;28;20429;-66
2022/01/26 12:14:22;;;;;;;63.63;30.05;;;4.60;99.90;;;;;;5099287;28;20080;-65
2022/01/26 12:16:51;;;;;;;60.45;29.55;;;4.60;99.90;;;;;;5117155;28;20115;-66
2022/01/26 12:19:29;;;;;;;57.78;29.08;;;4.60;99.90;;;;;;5097641;28;20237;-66
2022/01/26 12:38:11;;;;;;;50.92;26.10;;;4.70;99.90;;;;;;5097589;28;20055;-66
2022/01/26 12:43:35;;;;;;;56.97;28.90;;;4.80;99.90;;;;;;5117061;28;20048;-67
2022/01/26 12:46:01;;;;;;;61.17;29.00;;;4.80;99.90;;;;;;5117212;28;20035;-65
2022/01/26 12:48:28;;;;;;;59.38;29.75;;;4.80;99.90;;;;;;5117508;28;20039;-65
2022/01/26 12:50:57;;;;;;;59.67;29.67;;;4.80;99.90;;;;;;5116325;28;20099;-66
2022/01/26 12:53:25;;;;;;;61.97;28.95;;;4.80;99.90;;;;;;5109189;28;20039;-66
2022/01/26 12:55:59;;;;;;;58.05;28.80;;;4.80;99.90;;;;;;5097028;28;20039;-65
2022/01/26 12:58:40;;;;;;;55.05;27.85;;;4.80;99.90;;;;;;5096979;28;20120;-65
2022/01/26 13:01:08;;;;;;;58.67;28.83;;;4.70;99.90;;;;;;5095250;28;20072;-65
2022/01/26 13:03:36;;;;;;;57.20;28.98;;;4.70;99.90;;;;;;5106718;28;20119;-66
2022/01/26 13:06:11;;;;;;;65.22;30.77;;;4.80;99.90;;;;;;5117334;28;20039;-65
2022/01/26 13:08:47;;;;;;;;;;;4.70;99.90;;;;;;5117335;28;20047;-66
2022/01/26 13:11:21;;;;;;;58.05;30.95;;;4.70;99.90;;;;;;5115613;28;19916;-66
2022/01/26 13:13:46;;;;;;;69.78;31.10;;;4.80;99.90;;;;;;5106299;28;20115;-66
2022/01/26 13:16:18;;;;;;;65.75;31.55;;;4.70;99.90;;;;;;5116801;28;20123;-66
2022/01/26 13:21:46;;;;;;;60.30;30.08;;;4.70;99.90;;;;;;5115646;28;20105;-65
2022/01/26 13:25:12;;;;;;;68.72;29.02;;;4.70;99.90;;;;;;5116109;28;20039;-66
2022/01/26 13:27:48;;;;;;;59.90;29.85;;;4.70;99.90;;;;;;5106781;28;20160;-65
2022/01/26 13:33:14;;;;;;;57.03;30.13;;;4.80;99.90;;;;;;5113582;28;20043;-65
2022/01/26 13:36:26;;;;;;;65.88;30.48;;;4.80;99.90;;;;;;5078499;28;20052;-65
2022/01/26 13:41:41;;;;;;;62.67;30.55;;;4.70;99.90;;;;;;5116320;28;20051;-66
2022/01/26 13:47:17;;;;;;;62.40;31.17;;;4.90;99.90;;;;;;5095353;28;20040;-66
2022/01/26 13:50:05;;;;;;;59.83;29.65;;;4.80;99.90;;;;;;5095804;28;20048;-68
2022/01/26 13:58:20;;;;;;;58.15;28.60;;;4.90;99.90;;;;;;5033653;28;20733;-68
2022/01/26 14:00:56;;;;;;;56.15;28.75;;;5.00;99.90;;;;;;5033174;28;20493;-67
2022/01/26 14:03:24;;;;;;;59.60;29.67;;;5.00;99.90;;;;;;5085953;28;20056;-66
2022/01/26 14:05:50;;;;;;;58.25;29.88;;;5.10;99.90;;;;;;5097050;28;20054;-67
2022/01/26 14:08:15;;;;;;;55.28;27.48;;;5.00;99.90;;;;;;5112163;28;20039;-67
2022/01/26 14:10:44;;;;;;;53.95;28.13;;;5.00;99.90;;;;;;5115811;28;20119;-66
2022/01/26 14:13:10;;;;;;;57.20;29.17;;;5.10;99.90;;;;;;5113871;28;20507;-65
2022/01/26 14:15:47;;;;;;;63.33;27.90;;;5.10;99.90;;;;;;5115802;28;20071;-66
2022/01/26 14:21:30;;;;;;;53.70;27.67;;;5.10;99.90;;;;;;5135939;27;20112;-66
2022/01/26 14:26:12;;;;;;;56.35;29.45;;;5.20;99.90;;;;;;5115578;28;20087;-66
2022/01/26 14:28:38;;;;;;;55.13;26.70;;;5.20;99.90;;;;;;5115745;28;20118;-65
2022/01/26 15:33:16;;;;;;;54.03;26.73;;;5.10;99.90;;;;;;5134821;27;20432;-66
2022/01/26 15:48:52;;;;;;;50.10;25.02;;;5.20;99.90;;;;;;5114000;28;20353;-65
2022/01/26 15:51:58;;;;;;;50.13;25.58;;;5.20;99.90;;;;;;5113661;28;20054;-66
2022/01/26 16:08:26;;;;;;;51.20;24.63;;;5.30;99.90;;;;;;5095947;28;20108;-66
2022/01/26 16:26:46;;;;;;;50.28;26.67;;;5.30;99.90;;;;;;5095703;28;20062;-65
2022/01/26 16:37:56;;;;;;;50.83;25.38;;;5.40;99.90;;;;;;5078503;28;20554;-65
2022/01/26 18:13:31;;;;;;;41.33;21.48;;;6.30;99.90;;;;;;5135821;27;20155;-64
2022/01/26 18:16:00;;;;;;;40.05;21.23;;;6.30;99.90;;;;;;5136175;27;20051;-63
2022/01/26 18:49:58;;;;;;;43.88;23.75;;;5.80;99.90;;;;;;5133664;27;20043;-67
2022/01/26 18:52:23;;;;;;;43.83;24.30;;;5.80;99.90;;;;;;5117386;27;20167;-66
2022/01/26 18:54:49;;;;;;;43.28;24.38;;;5.80;99.90;;;;;;5134768;27;20449;-66
2022/01/26 18:57:15;;;;;;;40.50;23.77;;;5.80;99.90;;;;;;5135661;27;20042;-66
2022/01/26 18:59:40;;;;;;;46.85;25.25;;;5.80;99.90;;;;;;5135272;27;20054;-66
2022/01/26 19:02:07;;;;;;;47.40;24.52;;;5.80;99.90;;;;;;5135486;27;20046;-66
2022/01/26 19:04:42;;;;;;;49.45;26.40;;;5.80;99.90;;;;;;5114638;27;20044;-66
2022/01/26 19:07:08;;;;;;;50.30;28.02;;;5.70;99.90;;;;;;5132469;27;20394;-66
2022/01/26 19:09:39;;;;;;;47.33;26.92;;;5.70;99.90;;;;;;5130994;27;20042;-66
2022/01/26 19:12:09;;;;;;;51.88;28.63;;;5.70;99.90;;;;;;5094484;28;20074;-67
2022/01/26 19:14:38;;;;;;;52.38;27.45;;;5.60;99.90;;;;;;5094953;28;20105;-66